sensor_id;sensor_type;location;lat;lon;timestamp;temperature;humidity
65396;HTU21D;52004;45.136;39.010;2024-02-04T00:02:25;5.15;72.01
65396;HTU21D;52004;45.136;39.010;2024-02-04T00:04:51;5.18;72.00
65396;HTU21D;52004;45.136;39.010;2024-02-04T00:07:17;5.18;72.13
65396;HTU21D;52004;45.136;39.010;2024-02-04T00:09:43;5.23;72.13
65396;HTU21D;52004;45.136;39.010;2024-02-04T00:12:12;5.27;72.04
65396;HTU21D;52004;45.136;39.010;2024-02-04T00:14:38;5.27;71.96
65396;HTU21D;52004;45.136;39.010;2024-02-04T00:17:04;5.30;71.96
65396;HTU21D;52004;45.136;39.010;2024-02-04T00:19:30;5.32;72.03
65396;HTU21D;52004;45.136;39.010;2024-02-04T00:21:56;5.32;72.10
65396;HTU21D;52004;45.136;39.010;2024-02-04T00:24:21;5.32;72.20
65396;HTU21D;52004;45.136;39.010;2024-02-04T00:26:47;5.33;72.25
65396;HTU21D;52004;45.136;39.010;2024-02-04T00:29:13;5.33;72.27
65396;HTU21D;52004;45.136;39.010;2024-02-04T00:31:39;5.33;72.28
65396;HTU21D;52004;45.136;39.010;2024-02-04T00:34:05;5.34;72.34
65396;HTU21D;52004;45.136;39.010;2024-02-04T00:36:31;5.34;72.42
65396;HTU21D;52004;45.136;39.010;2024-02-04T00:38:57;5.35;72.53
65396;HTU21D;52004;45.136;39.010;2024-02-04T00:41:23;5.34;72.41
65396;HTU21D;52004;45.136;39.010;2024-02-04T00:43:49;5.36;72.55
65396;HTU21D;52004;45.136;39.010;2024-02-04T00:46:15;0.00;72.51
65396;HTU21D;52004;45.136;39.010;2024-02-04T00:48:41;5.35;72.44
65396;HTU21D;52004;45.136;39.010;2024-02-04T00:51:07;5.36;72.41
65396;HTU21D;52004;45.136;39.010;2024-02-04T00:53:34;5.36;72.36
65396;HTU21D;52004;45.136;39.010;2024-02-04T00:56:00;5.37;72.36
65396;HTU21D;52004;45.136;39.010;2024-02-04T00:58:26;5.38;72.39
65396;HTU21D;52004;45.136;39.010;2024-02-04T01:00:52;5.39;72.45
65396;HTU21D;52004;45.136;39.010;2024-02-04T01:03:18;5.40;72.43
65396;HTU21D;52004;45.136;39.010;2024-02-04T01:05:44;5.40;72.37
65396;HTU21D;52004;45.136;39.010;2024-02-04T01:08:10;5.41;72.41
65396;HTU21D;52004;45.136;39.010;2024-02-04T01:10:36;5.41;72.39
65396;HTU21D;52004;45.136;39.010;2024-02-04T01:13:03;5.42;72.52
65396;HTU21D;52004;45.136;39.010;2024-02-04T01:15:29;5.45;72.44
65396;HTU21D;52004;45.136;39.010;2024-02-04T01:17:56;5.43;72.48
65396;HTU21D;52004;45.136;39.010;2024-02-04T01:20:22;5.42;72.56
65396;HTU21D;52004;45.136;39.010;2024-02-04T01:22:47;5.42;72.41
65396;HTU21D;52004;45.136;39.010;2024-02-04T01:25:13;5.41;72.38
65396;HTU21D;52004;45.136;39.010;2024-02-04T01:27:39;5.39;72.34
65396;HTU21D;52004;45.136;39.010;2024-02-04T01:30:06;5.39;72.37
65396;HTU21D;52004;45.136;39.010;2024-02-04T01:32:34;5.38;72.36
65396;HTU21D;52004;45.136;39.010;2024-02-04T01:35:00;5.36;72.44
65396;HTU21D;52004;45.136;39.010;2024-02-04T01:37:26;5.37;72.39
65396;HTU21D;52004;45.136;39.010;2024-02-04T01:39:53;5.35;72.54
65396;HTU21D;52004;45.136;39.010;2024-02-04T01:42:19;5.34;72.54
65396;HTU21D;52004;45.136;39.010;2024-02-04T01:44:45;5.36;72.51
65396;HTU21D;52004;45.136;39.010;2024-02-04T01:47:10;5.36;72.56
65396;HTU21D;52004;45.136;39.010;2024-02-04T01:49:37;5.36;72.62
65396;HTU21D;52004;45.136;39.010;2024-02-04T01:52:03;5.37;72.64
65396;HTU21D;52004;45.136;39.010;2024-02-04T01:54:29;5.39;72.55
65396;HTU21D;52004;45.136;39.010;2024-02-04T01:56:56;5.39;72.66
65396;HTU21D;52004;45.136;39.010;2024-02-04T01:59:23;5.42;72.58
65396;HTU21D;52004;45.136;39.010;2024-02-04T02:01:56;5.43;72.62
65396;HTU21D;52004;45.136;39.010;2024-02-04T02:04:22;5.45;72.61
65396;HTU21D;52004;45.136;39.010;2024-02-04T02:06:49;5.46;72.66
65396;HTU21D;52004;45.136;39.010;2024-02-04T02:09:15;5.48;72.67
65396;HTU21D;52004;45.136;39.010;2024-02-04T02:11:42;5.49;72.64
65396;HTU21D;52004;45.136;39.010;2024-02-04T02:14:13;5.51;72.57
65396;HTU21D;52004;45.136;39.010;2024-02-04T02:16:39;5.52;72.54
65396;HTU21D;52004;45.136;39.010;2024-02-04T02:24:43;5.56;72.69
65396;HTU21D;52004;45.136;39.010;2024-02-04T02:27:11;5.60;72.61
65396;HTU21D;52004;45.136;39.010;2024-02-04T02:29:37;5.62;72.53
65396;HTU21D;52004;45.136;39.010;2024-02-04T02:32:03;5.65;72.49
65396;HTU21D;52004;45.136;39.010;2024-02-04T02:34:29;5.65;72.44
65396;HTU21D;52004;45.136;39.010;2024-02-04T02:37:43;5.65;72.50
65396;HTU21D;52004;45.136;39.010;2024-02-04T02:39:48;5.67;72.48
65396;HTU21D;52004;45.136;39.010;2024-02-04T02:42:15;5.69;72.46
65396;HTU21D;52004;45.136;39.010;2024-02-04T02:44:41;5.70;72.45
65396;HTU21D;52004;45.136;39.010;2024-02-04T02:47:09;5.71;72.44
65396;HTU21D;52004;45.136;39.010;2024-02-04T02:49:35;5.74;72.52
65396;HTU21D;52004;45.136;39.010;2024-02-04T02:52:01;5.75;72.43
65396;HTU21D;52004;45.136;39.010;2024-02-04T02:54:27;5.76;72.38
65396;HTU21D;52004;45.136;39.010;2024-02-04T02:56:53;5.77;72.44
65396;HTU21D;52004;45.136;39.010;2024-02-04T02:59:19;5.77;72.40
65396;HTU21D;52004;45.136;39.010;2024-02-04T03:01:45;5.78;72.48
65396;HTU21D;52004;45.136;39.010;2024-02-04T03:04:11;5.79;72.45
65396;HTU21D;52004;45.136;39.010;2024-02-04T03:06:37;0.00;72.41
65396;HTU21D;52004;45.136;39.010;2024-02-04T03:09:03;5.78;72.41
65396;HTU21D;52004;45.136;39.010;2024-02-04T03:11:29;5.77;72.38
65396;HTU21D;52004;45.136;39.010;2024-02-04T03:13:55;5.75;72.51
65396;HTU21D;52004;45.136;39.010;2024-02-04T03:16:20;5.75;72.55
65396;HTU21D;52004;45.136;39.010;2024-02-04T03:18:46;5.75;72.56
65396;HTU21D;52004;45.136;39.010;2024-02-04T03:21:13;5.75;72.51
65396;HTU21D;52004;45.136;39.010;2024-02-04T03:23:39;5.72;72.43
65396;HTU21D;52004;45.136;39.010;2024-02-04T03:26:05;5.72;72.50
65396;HTU21D;52004;45.136;39.010;2024-02-04T03:28:31;5.72;72.51
65396;HTU21D;52004;45.136;39.010;2024-02-04T03:30:57;5.71;72.54
65396;HTU21D;52004;45.136;39.010;2024-02-04T03:33:23;5.71;72.58
65396;HTU21D;52004;45.136;39.010;2024-02-04T03:35:49;5.71;72.54
65396;HTU21D;52004;45.136;39.010;2024-02-04T03:38:15;5.74;72.58
65396;HTU21D;52004;45.136;39.010;2024-02-04T03:40:41;5.74;72.58
65396;HTU21D;52004;45.136;39.010;2024-02-04T03:43:09;5.75;72.71
65396;HTU21D;52004;45.136;39.010;2024-02-04T03:45:35;5.76;72.64
65396;HTU21D;52004;45.136;39.010;2024-02-04T03:48:01;5.78;72.63
65396;HTU21D;52004;45.136;39.010;2024-02-04T03:50:27;5.78;72.66
65396;HTU21D;52004;45.136;39.010;2024-02-04T03:52:53;5.80;72.61
65396;HTU21D;52004;45.136;39.010;2024-02-04T03:55:19;5.82;72.59
65396;HTU21D;52004;45.136;39.010;2024-02-04T03:57:45;5.83;72.53
65396;HTU21D;52004;45.136;39.010;2024-02-04T04:00:12;5.84;72.55
65396;HTU21D;52004;45.136;39.010;2024-02-04T04:02:39;5.85;72.62
65396;HTU21D;52004;45.136;39.010;2024-02-04T04:05:05;5.84;72.58
65396;HTU21D;52004;45.136;39.010;2024-02-04T04:07:31;5.85;72.67
65396;HTU21D;52004;45.136;39.010;2024-02-04T04:09:57;5.87;72.63
65396;HTU21D;52004;45.136;39.010;2024-02-04T04:12:23;5.89;72.72
65396;HTU21D;52004;45.136;39.010;2024-02-04T04:14:49;5.91;72.62
65396;HTU21D;52004;45.136;39.010;2024-02-04T04:17:14;5.92;72.58
65396;HTU21D;52004;45.136;39.010;2024-02-04T04:19:40;5.92;72.61
65396;HTU21D;52004;45.136;39.010;2024-02-04T04:22:06;5.93;72.56
65396;HTU21D;52004;45.136;39.010;2024-02-04T04:24:32;5.93;72.55
65396;HTU21D;52004;45.136;39.010;2024-02-04T04:26:58;5.93;72.77
65396;HTU21D;52004;45.136;39.010;2024-02-04T04:29:24;5.93;72.68
65396;HTU21D;52004;45.136;39.010;2024-02-04T04:31:50;5.92;72.77
65396;HTU21D;52004;45.136;39.010;2024-02-04T04:34:17;5.92;72.79
65396;HTU21D;52004;45.136;39.010;2024-02-04T04:36:45;5.93;72.89
65396;HTU21D;52004;45.136;39.010;2024-02-04T04:39:11;0.00;72.92
65396;HTU21D;52004;45.136;39.010;2024-02-04T04:41:38;5.97;72.83
65396;HTU21D;52004;45.136;39.010;2024-02-04T04:44:04;5.98;72.83
65396;HTU21D;52004;45.136;39.010;2024-02-04T04:46:30;6.01;72.80
65396;HTU21D;52004;45.136;39.010;2024-02-04T04:48:55;6.02;72.72
65396;HTU21D;52004;45.136;39.010;2024-02-04T04:51:23;6.05;72.80
65396;HTU21D;52004;45.136;39.010;2024-02-04T04:53:49;6.08;72.78
65396;HTU21D;52004;45.136;39.010;2024-02-04T04:56:15;6.10;72.72
65396;HTU21D;52004;45.136;39.010;2024-02-04T04:58:41;6.09;72.77
65396;HTU21D;52004;45.136;39.010;2024-02-04T05:01:07;6.11;72.75
65396;HTU21D;52004;45.136;39.010;2024-02-04T05:03:33;6.12;72.71
65396;HTU21D;52004;45.136;39.010;2024-02-04T05:05:58;6.12;72.69
65396;HTU21D;52004;45.136;39.010;2024-02-04T05:08:26;6.10;72.78
65396;HTU21D;52004;45.136;39.010;2024-02-04T05:10:52;6.09;72.80
65396;HTU21D;52004;45.136;39.010;2024-02-04T05:13:18;6.10;72.83
65396;HTU21D;52004;45.136;39.010;2024-02-04T05:15:44;6.08;72.88
65396;HTU21D;52004;45.136;39.010;2024-02-04T05:18:10;6.08;72.95
65396;HTU21D;52004;45.136;39.010;2024-02-04T05:20:36;6.08;72.94
65396;HTU21D;52004;45.136;39.010;2024-02-04T05:23:02;6.09;72.90
65396;HTU21D;52004;45.136;39.010;2024-02-04T05:25:28;6.08;72.93
65396;HTU21D;52004;45.136;39.010;2024-02-04T05:27:54;6.08;72.90
65396;HTU21D;52004;45.136;39.010;2024-02-04T05:30:20;6.09;72.90
65396;HTU21D;52004;45.136;39.010;2024-02-04T05:32:46;6.08;72.96
65396;HTU21D;52004;45.136;39.010;2024-02-04T05:35:12;6.09;72.97
65396;HTU21D;52004;45.136;39.010;2024-02-04T05:37:38;6.09;72.96
65396;HTU21D;52004;45.136;39.010;2024-02-04T05:40:04;6.09;73.17
65396;HTU21D;52004;45.136;39.010;2024-02-04T05:42:30;6.12;73.05
65396;HTU21D;52004;45.136;39.010;2024-02-04T05:45:00;6.10;73.05
65396;HTU21D;52004;45.136;39.010;2024-02-04T05:47:26;6.10;72.99
65396;HTU21D;52004;45.136;39.010;2024-02-04T05:49:52;6.09;73.08
65396;HTU21D;52004;45.136;39.010;2024-02-04T05:52:18;6.09;73.11
65396;HTU21D;52004;45.136;39.010;2024-02-04T05:54:44;6.06;73.14
65396;HTU21D;52004;45.136;39.010;2024-02-04T05:57:10;6.08;73.14
65396;HTU21D;52004;45.136;39.010;2024-02-04T05:59:37;6.07;73.21
65396;HTU21D;52004;45.136;39.010;2024-02-04T06:02:04;6.08;73.21
65396;HTU21D;52004;45.136;39.010;2024-02-04T06:04:30;6.07;73.22
65396;HTU21D;52004;45.136;39.010;2024-02-04T06:06:56;6.07;73.21
65396;HTU21D;52004;45.136;39.010;2024-02-04T06:09:22;6.07;73.28
65396;HTU21D;52004;45.136;39.010;2024-02-04T06:11:47;6.07;73.34
65396;HTU21D;52004;45.136;39.010;2024-02-04T06:14:13;6.06;73.28
65396;HTU21D;52004;45.136;39.010;2024-02-04T06:16:39;6.08;73.23
65396;HTU21D;52004;45.136;39.010;2024-02-04T06:19:05;6.09;73.22
65396;HTU21D;52004;45.136;39.010;2024-02-04T06:21:34;6.10;73.22
65396;HTU21D;52004;45.136;39.010;2024-02-04T06:24:00;6.11;73.48
65396;HTU21D;52004;45.136;39.010;2024-02-04T06:26:26;6.10;73.31
65396;HTU21D;52004;45.136;39.010;2024-02-04T06:28:52;6.12;73.23
65396;HTU21D;52004;45.136;39.010;2024-02-04T06:31:18;6.13;73.15
65396;HTU21D;52004;45.136;39.010;2024-02-04T06:33:44;6.12;73.18
65396;HTU21D;52004;45.136;39.010;2024-02-04T06:36:10;6.11;73.24
65396;HTU21D;52004;45.136;39.010;2024-02-04T06:38:36;6.11;73.22
65396;HTU21D;52004;45.136;39.010;2024-02-04T06:41:02;0.00;73.29
65396;HTU21D;52004;45.136;39.010;2024-02-04T06:43:28;6.10;73.35
65396;HTU21D;52004;45.136;39.010;2024-02-04T06:45:54;6.10;73.37
65396;HTU21D;52004;45.136;39.010;2024-02-04T06:48:19;6.10;73.34
65396;HTU21D;52004;45.136;39.010;2024-02-04T06:50:45;6.10;73.32
65396;HTU21D;52004;45.136;39.010;2024-02-04T06:53:13;6.11;73.41
65396;HTU21D;52004;45.136;39.010;2024-02-04T06:55:39;6.11;73.38
65396;HTU21D;52004;45.136;39.010;2024-02-04T06:58:05;6.13;73.35
65396;HTU21D;52004;45.136;39.010;2024-02-04T07:00:31;6.13;73.37
65396;HTU21D;52004;45.136;39.010;2024-02-04T07:02:57;6.11;73.41
65396;HTU21D;52004;45.136;39.010;2024-02-04T07:05:23;6.11;73.47
65396;HTU21D;52004;45.136;39.010;2024-02-04T07:07:50;6.12;73.54
65396;HTU21D;52004;45.136;39.010;2024-02-04T07:10:16;6.11;73.52
65396;HTU21D;52004;45.136;39.010;2024-02-04T07:12:42;6.12;73.53
65396;HTU21D;52004;45.136;39.010;2024-02-04T07:15:08;0.00;73.51
65396;HTU21D;52004;45.136;39.010;2024-02-04T07:17:34;6.16;73.55
65396;HTU21D;52004;45.136;39.010;2024-02-04T07:20:04;6.17;73.56
65396;HTU21D;52004;45.136;39.010;2024-02-04T07:22:31;6.21;73.61
65396;HTU21D;52004;45.136;39.010;2024-02-04T07:24:57;6.23;73.67
65396;HTU21D;52004;45.136;39.010;2024-02-04T07:27:23;6.26;73.64
65396;HTU21D;52004;45.136;39.010;2024-02-04T07:29:49;0.00;73.66
65396;HTU21D;52004;45.136;39.010;2024-02-04T07:32:15;6.28;73.67
65396;HTU21D;52004;45.136;39.010;2024-02-04T07:34:41;6.30;73.76
65396;HTU21D;52004;45.136;39.010;2024-02-04T07:37:07;0.00;73.78
65396;HTU21D;52004;45.136;39.010;2024-02-04T07:39:33;6.34;73.82
65396;HTU21D;52004;45.136;39.010;2024-02-04T07:41:59;6.37;73.86
65396;HTU21D;52004;45.136;39.010;2024-02-04T07:44:28;6.37;73.89
65396;HTU21D;52004;45.136;39.010;2024-02-04T07:46:55;6.40;73.90
65396;HTU21D;52004;45.136;39.010;2024-02-04T07:49:21;6.43;73.93
65396;HTU21D;52004;45.136;39.010;2024-02-04T07:51:47;6.46;74.15
65396;HTU21D;52004;45.136;39.010;2024-02-04T07:54:13;6.51;74.07
65396;HTU21D;52004;45.136;39.010;2024-02-04T07:56:39;6.52;74.11
65396;HTU21D;52004;45.136;39.010;2024-02-04T07:59:05;6.56;74.15
65396;HTU21D;52004;45.136;39.010;2024-02-04T08:01:31;6.57;74.15
65396;HTU21D;52004;45.136;39.010;2024-02-04T08:03:56;6.58;74.31
65396;HTU21D;52004;45.136;39.010;2024-02-04T08:06:22;6.59;74.22
65396;HTU21D;52004;45.136;39.010;2024-02-04T08:08:48;6.58;74.18
65396;HTU21D;52004;45.136;39.010;2024-02-04T08:11:18;6.56;74.13
65396;HTU21D;52004;45.136;39.010;2024-02-04T08:13:43;6.54;74.20
65396;HTU21D;52004;45.136;39.010;2024-02-04T08:16:10;6.53;74.32
65396;HTU21D;52004;45.136;39.010;2024-02-04T08:18:36;6.51;74.33
65396;HTU21D;52004;45.136;39.010;2024-02-04T08:21:02;6.50;74.43
65396;HTU21D;52004;45.136;39.010;2024-02-04T08:23:29;6.53;74.61
65396;HTU21D;52004;45.136;39.010;2024-02-04T08:25:55;6.58;74.52
65396;HTU21D;52004;45.136;39.010;2024-02-04T08:28:22;6.63;74.56
65396;HTU21D;52004;45.136;39.010;2024-02-04T08:30:49;6.67;74.54
65396;HTU21D;52004;45.136;39.010;2024-02-04T08:33:15;6.70;74.67
65396;HTU21D;52004;45.136;39.010;2024-02-04T08:35:41;6.72;74.62
65396;HTU21D;52004;45.136;39.010;2024-02-04T08:38:07;6.76;74.69
65396;HTU21D;52004;45.136;39.010;2024-02-04T08:40:33;6.80;74.62
65396;HTU21D;52004;45.136;39.010;2024-02-04T08:42:59;6.82;74.61
65396;HTU21D;52004;45.136;39.010;2024-02-04T08:45:25;6.83;74.60
65396;HTU21D;52004;45.136;39.010;2024-02-04T08:47:50;6.82;74.65
65396;HTU21D;52004;45.136;39.010;2024-02-04T08:50:16;6.81;74.67
65396;HTU21D;52004;45.136;39.010;2024-02-04T08:52:42;6.80;74.78
65396;HTU21D;52004;45.136;39.010;2024-02-04T08:55:08;6.81;74.76
65396;HTU21D;52004;45.136;39.010;2024-02-04T08:57:34;6.83;75.10
65396;HTU21D;52004;45.136;39.010;2024-02-04T09:00:00;6.84;75.06
65396;HTU21D;52004;45.136;39.010;2024-02-04T09:02:26;6.87;75.06
65396;HTU21D;52004;45.136;39.010;2024-02-04T09:04:52;6.91;75.09
65396;HTU21D;52004;45.136;39.010;2024-02-04T09:07:19;6.95;75.02
65396;HTU21D;52004;45.136;39.010;2024-02-04T09:09:46;6.99;75.05
65396;HTU21D;52004;45.136;39.010;2024-02-04T09:12:12;7.03;75.10
65396;HTU21D;52004;45.136;39.010;2024-02-04T09:15:03;7.08;75.05
65396;HTU21D;52004;45.136;39.010;2024-02-04T09:17:30;7.11;75.15
65396;HTU21D;52004;45.136;39.010;2024-02-04T09:19:58;7.16;75.17
65396;HTU21D;52004;45.136;39.010;2024-02-04T09:22:25;7.20;75.10
65396;HTU21D;52004;45.136;39.010;2024-02-04T09:24:51;7.26;75.05
65396;HTU21D;52004;45.136;39.010;2024-02-04T09:27:17;7.29;75.03
65396;HTU21D;52004;45.136;39.010;2024-02-04T09:29:43;7.32;75.00
65396;HTU21D;52004;45.136;39.010;2024-02-04T09:32:09;7.35;75.01
65396;HTU21D;52004;45.136;39.010;2024-02-04T09:34:35;7.40;75.06
65396;HTU21D;52004;45.136;39.010;2024-02-04T09:37:03;7.42;74.98
65396;HTU21D;52004;45.136;39.010;2024-02-04T09:39:30;7.46;74.96
65396;HTU21D;52004;45.136;39.010;2024-02-04T09:41:56;7.49;74.95
65396;HTU21D;52004;45.136;39.010;2024-02-04T09:44:22;7.53;74.98
65396;HTU21D;52004;45.136;39.010;2024-02-04T09:46:48;7.60;74.99
65396;HTU21D;52004;45.136;39.010;2024-02-04T09:49:14;7.65;74.96
65396;HTU21D;52004;45.136;39.010;2024-02-04T09:51:40;7.72;74.94
65396;HTU21D;52004;45.136;39.010;2024-02-04T09:54:07;7.76;74.89
65396;HTU21D;52004;45.136;39.010;2024-02-04T09:56:35;7.82;74.85
65396;HTU21D;52004;45.136;39.010;2024-02-04T09:59:03;7.86;74.80
65396;HTU21D;52004;45.136;39.010;2024-02-04T10:01:29;7.89;74.72
65396;HTU21D;52004;45.136;39.010;2024-02-04T10:03:55;7.91;74.67
65396;HTU21D;52004;45.136;39.010;2024-02-04T10:06:21;7.93;74.65
65396;HTU21D;52004;45.136;39.010;2024-02-04T10:08:47;7.97;74.76
65396;HTU21D;52004;45.136;39.010;2024-02-04T10:11:13;8.05;74.89
65396;HTU21D;52004;45.136;39.010;2024-02-04T10:13:43;8.11;74.76
65396;HTU21D;52004;45.136;39.010;2024-02-04T10:16:09;8.16;74.73
65396;HTU21D;52004;45.136;39.010;2024-02-04T10:18:35;8.21;74.69
65396;HTU21D;52004;45.136;39.010;2024-02-04T10:21:01;8.23;74.66
65396;HTU21D;52004;45.136;39.010;2024-02-04T10:23:27;8.28;74.60
65396;HTU21D;52004;45.136;39.010;2024-02-04T10:25:59;8.31;74.53
65396;HTU21D;52004;45.136;39.010;2024-02-04T10:28:25;8.35;74.50
65396;HTU21D;52004;45.136;39.010;2024-02-04T10:30:51;8.38;74.53
65396;HTU21D;52004;45.136;39.010;2024-02-04T10:33:18;8.45;74.56
65396;HTU21D;52004;45.136;39.010;2024-02-04T10:35:43;8.50;74.57
65396;HTU21D;52004;45.136;39.010;2024-02-04T10:38:10;8.56;74.54
65396;HTU21D;52004;45.136;39.010;2024-02-04T10:40:36;8.62;74.64
65396;HTU21D;52004;45.136;39.010;2024-02-04T10:43:03;8.78;75.40
65396;HTU21D;52004;45.136;39.010;2024-02-04T10:45:30;9.00;76.37
65396;HTU21D;52004;45.136;39.010;2024-02-04T10:47:58;9.20;75.99
65396;HTU21D;52004;45.136;39.010;2024-02-04T10:50:26;0.00;75.35
65396;HTU21D;52004;45.136;39.010;2024-02-04T10:52:53;9.37;74.59
65396;HTU21D;52004;45.136;39.010;2024-02-04T10:55:21;9.35;74.31
65396;HTU21D;52004;45.136;39.010;2024-02-04T10:57:52;9.32;74.10
65396;HTU21D;52004;45.136;39.010;2024-02-04T11:00:18;9.30;74.03
65396;HTU21D;52004;45.136;39.010;2024-02-04T11:02:46;9.32;74.46
65396;HTU21D;52004;45.136;39.010;2024-02-04T11:05:14;9.44;74.99
65396;HTU21D;52004;45.136;39.010;2024-02-04T11:07:42;9.56;75.09
65396;HTU21D;52004;45.136;39.010;2024-02-04T11:10:09;9.63;74.44
65396;HTU21D;52004;45.136;39.010;2024-02-04T11:12:36;9.64;74.07
65396;HTU21D;52004;45.136;39.010;2024-02-04T11:15:04;9.61;73.72
65396;HTU21D;52004;45.136;39.010;2024-02-04T11:20:21;9.54;73.61
65396;HTU21D;52004;45.136;39.010;2024-02-04T11:22:56;9.52;73.59
65396;HTU21D;52004;45.136;39.010;2024-02-04T11:28:11;9.55;73.50
65396;HTU21D;52004;45.136;39.010;2024-02-04T11:30:37;9.56;73.45
65396;HTU21D;52004;45.136;39.010;2024-02-04T11:33:03;9.55;73.34
65396;HTU21D;52004;45.136;39.010;2024-02-04T11:35:29;9.55;73.28
65396;HTU21D;52004;45.136;39.010;2024-02-04T11:37:56;9.55;73.21
65396;HTU21D;52004;45.136;39.010;2024-02-04T11:40:22;9.52;73.15
65396;HTU21D;52004;45.136;39.010;2024-02-04T11:42:49;9.51;73.11
65396;HTU21D;52004;45.136;39.010;2024-02-04T11:45:15;9.47;73.08
65396;HTU21D;52004;45.136;39.010;2024-02-04T11:47:42;9.46;73.11
65396;HTU21D;52004;45.136;39.010;2024-02-04T11:50:08;9.45;73.09
65396;HTU21D;52004;45.136;39.010;2024-02-04T11:52:34;9.41;73.10
65396;HTU21D;52004;45.136;39.010;2024-02-04T11:55:00;9.39;73.12
65396;HTU21D;52004;45.136;39.010;2024-02-04T11:57:26;9.37;73.09
65396;HTU21D;52004;45.136;39.010;2024-02-04T11:59:52;9.34;73.11
65396;HTU21D;52004;45.136;39.010;2024-02-04T12:02:20;9.32;73.15
65396;HTU21D;52004;45.136;39.010;2024-02-04T12:04:49;9.31;73.16
65396;HTU21D;52004;45.136;39.010;2024-02-04T12:07:16;9.32;73.15
65396;HTU21D;52004;45.136;39.010;2024-02-04T12:09:42;9.32;73.19
65396;HTU21D;52004;45.136;39.010;2024-02-04T12:12:08;9.33;73.15
65396;HTU21D;52004;45.136;39.010;2024-02-04T12:14:35;9.33;73.12
65396;HTU21D;52004;45.136;39.010;2024-02-04T12:17:08;9.32;73.09
65396;HTU21D;52004;45.136;39.010;2024-02-04T12:19:35;9.31;73.06
65396;HTU21D;52004;45.136;39.010;2024-02-04T12:22:01;9.30;73.03
65396;HTU21D;52004;45.136;39.010;2024-02-04T12:24:31;9.29;73.03
65396;HTU21D;52004;45.136;39.010;2024-02-04T12:26:57;9.27;72.98
65396;HTU21D;52004;45.136;39.010;2024-02-04T12:29:23;9.29;72.98
65396;HTU21D;52004;45.136;39.010;2024-02-04T12:31:57;9.26;72.96
65396;HTU21D;52004;45.136;39.010;2024-02-04T12:34:23;9.24;73.02
65396;HTU21D;52004;45.136;39.010;2024-02-04T12:36:56;9.20;73.08
65396;HTU21D;52004;45.136;39.010;2024-02-04T12:39:23;9.18;73.09
65396;HTU21D;52004;45.136;39.010;2024-02-04T12:41:50;9.17;73.12
65396;HTU21D;52004;45.136;39.010;2024-02-04T12:44:17;9.15;73.14
65396;HTU21D;52004;45.136;39.010;2024-02-04T12:46:43;9.11;73.17
65396;HTU21D;52004;45.136;39.010;2024-02-04T12:49:10;9.10;73.19
65396;HTU21D;52004;45.136;39.010;2024-02-04T12:51:36;0.00;73.27
65396;HTU21D;52004;45.136;39.010;2024-02-04T12:54:10;9.09;73.35
65396;HTU21D;52004;45.136;39.010;2024-02-04T12:56:46;9.08;73.31
65396;HTU21D;52004;45.136;39.010;2024-02-04T12:59:28;9.08;73.29
65396;HTU21D;52004;45.136;39.010;2024-02-04T13:01:56;9.07;73.25
65396;HTU21D;52004;45.136;39.010;2024-02-04T13:04:22;9.07;73.24
65396;HTU21D;52004;45.136;39.010;2024-02-04T13:06:49;9.05;73.25
65396;HTU21D;52004;45.136;39.010;2024-02-04T13:09:16;9.04;73.28
65396;HTU21D;52004;45.136;39.010;2024-02-04T13:11:42;9.04;73.32
65396;HTU21D;52004;45.136;39.010;2024-02-04T13:14:08;9.04;73.33
65396;HTU21D;52004;45.136;39.010;2024-02-04T13:16:34;9.04;73.37
65396;HTU21D;52004;45.136;39.010;2024-02-04T13:19:03;9.05;73.36
65396;HTU21D;52004;45.136;39.010;2024-02-04T13:21:29;9.06;73.40
65396;HTU21D;52004;45.136;39.010;2024-02-04T13:23:55;9.06;73.36
65396;HTU21D;52004;45.136;39.010;2024-02-04T13:26:21;9.07;73.34
65396;HTU21D;52004;45.136;39.010;2024-02-04T13:28:47;9.05;73.28
65396;HTU21D;52004;45.136;39.010;2024-02-04T13:31:13;9.04;73.25
65396;HTU21D;52004;45.136;39.010;2024-02-04T13:33:40;9.03;73.25
65396;HTU21D;52004;45.136;39.010;2024-02-04T13:36:06;9.02;73.21
65396;HTU21D;52004;45.136;39.010;2024-02-04T13:38:33;9.01;73.19
65396;HTU21D;52004;45.136;39.010;2024-02-04T13:40:59;9.01;73.17
65396;HTU21D;52004;45.136;39.010;2024-02-04T13:43:25;8.98;73.18
65396;HTU21D;52004;45.136;39.010;2024-02-04T13:45:52;8.97;73.21
65396;HTU21D;52004;45.136;39.010;2024-02-04T13:48:18;8.96;73.25
65396;HTU21D;52004;45.136;39.010;2024-02-04T13:50:46;8.93;73.23
65396;HTU21D;52004;45.136;39.010;2024-02-04T13:53:12;8.93;73.25
65396;HTU21D;52004;45.136;39.010;2024-02-04T13:55:39;8.94;73.27
65396;HTU21D;52004;45.136;39.010;2024-02-04T13:58:05;8.95;73.27
65396;HTU21D;52004;45.136;39.010;2024-02-04T14:00:31;8.95;73.28
65396;HTU21D;52004;45.136;39.010;2024-02-04T14:02:57;8.95;73.32
65396;HTU21D;52004;45.136;39.010;2024-02-04T14:05:24;8.94;73.38
65396;HTU21D;52004;45.136;39.010;2024-02-04T14:07:51;8.94;73.33
65396;HTU21D;52004;45.136;39.010;2024-02-04T14:10:17;8.93;73.32
65396;HTU21D;52004;45.136;39.010;2024-02-04T14:12:43;8.92;73.38
65396;HTU21D;52004;45.136;39.010;2024-02-04T14:15:11;8.91;73.32
65396;HTU21D;52004;45.136;39.010;2024-02-04T14:17:37;8.90;73.28
65396;HTU21D;52004;45.136;39.010;2024-02-04T14:20:04;8.88;73.30
65396;HTU21D;52004;45.136;39.010;2024-02-04T14:22:30;8.87;73.37
65396;HTU21D;52004;45.136;39.010;2024-02-04T14:24:56;8.86;73.36
65396;HTU21D;52004;45.136;39.010;2024-02-04T14:30:13;8.80;73.38
65396;HTU21D;52004;45.136;39.010;2024-02-04T14:32:39;8.80;73.39
65396;HTU21D;52004;45.136;39.010;2024-02-04T14:35:06;8.79;73.43
65396;HTU21D;52004;45.136;39.010;2024-02-04T14:37:35;8.78;73.46
65396;HTU21D;52004;45.136;39.010;2024-02-04T14:40:01;8.77;73.44
65396;HTU21D;52004;45.136;39.010;2024-02-04T14:42:29;8.75;73.44
65396;HTU21D;52004;45.136;39.010;2024-02-04T14:44:54;8.74;73.48
65396;HTU21D;52004;45.136;39.010;2024-02-04T14:47:20;8.72;73.47
65396;HTU21D;52004;45.136;39.010;2024-02-04T14:49:46;8.71;73.52
65396;HTU21D;52004;45.136;39.010;2024-02-04T14:52:12;8.70;73.51
65396;HTU21D;52004;45.136;39.010;2024-02-04T14:54:38;8.70;73.51
65396;HTU21D;52004;45.136;39.010;2024-02-04T14:57:05;8.68;73.54
65396;HTU21D;52004;45.136;39.010;2024-02-04T14:59:56;8.66;73.63
65396;HTU21D;52004;45.136;39.010;2024-02-04T15:02:22;8.65;73.59
65396;HTU21D;52004;45.136;39.010;2024-02-04T15:04:48;8.64;73.62
65396;HTU21D;52004;45.136;39.010;2024-02-04T15:07:14;8.63;73.70
65396;HTU21D;52004;45.136;39.010;2024-02-04T15:09:40;8.63;73.67
65396;HTU21D;52004;45.136;39.010;2024-02-04T15:12:06;8.62;73.68
65396;HTU21D;52004;45.136;39.010;2024-02-04T15:14:32;8.61;73.60
65396;HTU21D;52004;45.136;39.010;2024-02-04T15:16:58;8.60;73.60
65396;HTU21D;52004;45.136;39.010;2024-02-04T15:19:26;8.57;73.61
65396;HTU21D;52004;45.136;39.010;2024-02-04T15:21:54;8.57;73.70
65396;HTU21D;52004;45.136;39.010;2024-02-04T15:24:20;8.56;73.74
65396;HTU21D;52004;45.136;39.010;2024-02-04T15:26:47;8.55;73.76